Meteorological Aerodrome Report (METAR)

METAR

Data at: 0645 UTC 18 Jul 2019

METAR for:NVSC (Sola/Vanua Lava Arpt, --, NV)
Text:NVSC 180600Z 11010KT 9999 BKN020 27/22 Q1010
Temperature: 27.0°C ( 81°F)
Dewpoint: 22.0°C ( 72°F) [RH = 74%]
Pressure (altimeter):29.82 inches Hg (1010.0 mb)
Winds:from the ESE (110 degrees) at 12 MPH (10 knots; 5.1 m/s)
Visibility:6 or more sm (10+ km)
Ceiling:2000 feet AGL
Clouds: broken clouds at 2000 feet AGL

METAR

Data at: 0645 UTC 18 Jul 2019

METAR for:NVSG (Longana Arpt, --, NV)
Text:No data found

METAR

Data at: 0645 UTC 18 Jul 2019

METAR for:NVSS (Santo/Pekoa Intl, --, NV)
Text:NVSS 180600Z 10005KT 9999 BKN020 26/19 Q1010
Temperature: 26.0°C ( 79°F)
Dewpoint: 19.0°C ( 66°F) [RH = 65%]
Pressure (altimeter):29.82 inches Hg (1010.0 mb)
Winds:from the E (100 degrees) at 6 MPH (5 knots; 2.6 m/s)
Visibility:6 or more sm (10+ km)
Ceiling:2000 feet AGL
Clouds: broken clouds at 2000 feet AGL

METAR

Data at: 0645 UTC 18 Jul 2019

METAR for:NVSL (Malekula/Lamap, --, NV)
Text:No data found

METAR

Data at: 0645 UTC 18 Jul 2019

METAR for:NVSP (Norsup Arpt, --, NV)
Text:No data found

METAR

Data at: 0645 UTC 18 Jul 2019

METAR for:NVVV (Efate/Bauerfield Int, --, NV)
Text:NVVV 180600Z 09006KT 9999 FEW020 BKN045 23/17 Q1012
Temperature: 23.0°C ( 73°F)
Dewpoint: 17.0°C ( 63°F) [RH = 69%]
Pressure (altimeter):29.88 inches Hg (1012.0 mb)
Winds:from the E (90 degrees) at 7 MPH (6 knots; 3.1 m/s)
Visibility:6 or more sm (10+ km)
Ceiling:4500 feet AGL
Clouds: few clouds at 2000 feet AGL, broken clouds at 4500 feet AGL

METAR

Data at: 0645 UTC 18 Jul 2019

METAR for:NVVW (Tanna Arpt, --, NV)
Text:NVVW 180600Z 15004KT 9999 SCT025 23/17 Q1012
Temperature: 23.0°C ( 73°F)
Dewpoint: 17.0°C ( 63°F) [RH = 69%]
Pressure (altimeter):29.88 inches Hg (1012.0 mb)
Winds:from the SSE (150 degrees) at 5 MPH (4 knots; 2.1 m/s)
Visibility:6 or more sm (10+ km)
Ceiling:at least 12,000 feet AGL
Clouds: scattered clouds at 2500 feet AGL

METAR

Data at: 0645 UTC 18 Jul 2019

METAR for:NVVA (Aneityum/Mystery Isl, --, NV)
Text:NVVA 180600Z 00000KT 9999 SCT020 BKN040 22/19 Q1013
Temperature: 22.0°C ( 72°F)
Dewpoint: 19.0°C ( 66°F) [RH = 83%]
Pressure (altimeter):29.91 inches Hg (1013.0 mb)
Winds:calm
Visibility:6 or more sm (10+ km)
Ceiling:4000 feet AGL
Clouds: scattered clouds at 2000 feet AGL, broken clouds at 4000 feet AGL

METAR

Data at: 0645 UTC 18 Jul 2019

NVVV 180600Z 09006KT 9999 FEW020 BKN045 23/17 Q1012
NVSC 180600Z 11010KT 9999 BKN020 27/22 Q1010
No Data available for NVSG
NVSS 180600Z 10005KT 9999 BKN020 26/19 Q1010
No Data available for NVSL
No Data available for NVSP
NVVW 180600Z 15004KT 9999 SCT025 23/17 Q1012
NVVA 180600Z 00000KT 9999 SCT020 BKN040 22/19 Q1013